Time;durP1;ratioP1;P1;durP2;ratioP2;P2;SDS_P1;SDS_P2;PMS_P1;PMS_P2;Temp;Humidity;BMP_temperature;BMP_pressure;BME280_temperature;BME280_humidity;BME280_pressure;Samples;Min_cycle;Max_cycle;Signal;HPM_P1;HPM_P2
2022/11/22 00:01:56;;;;;;;12.55;5.80;;;;;;;7.34;100.00;99064.19;5010460;28;20037;-65
2022/11/22 00:04:21;;;;;;;20.20;6.82;;;;;;;7.22;100.00;99067.44;5010338;28;20022;-65
2022/11/22 00:06:47;;;;;;;18.23;6.93;;;;;;;7.06;100.00;99070.78;5010086;28;20030;-64
2022/11/22 00:09:12;;;;;;;9.82;5.97;;;;;;;7.01;100.00;99065.75;5025812;28;20026;-64
2022/11/22 00:11:37;;;;;;;13.82;6.20;;;;;;;6.97;100.00;99058.97;5029521;28;20029;-64
2022/11/22 00:14:03;;;;;;;16.73;7.20;;;;;;;6.85;100.00;99059.53;5029045;28;20042;-65
2022/11/22 00:16:29;;;;;;;18.58;6.72;;;;;;;6.85;100.00;99059.53;5029339;28;20365;-66
2022/11/22 00:18:54;;;;;;;18.60;6.55;;;;;;;6.81;100.00;99064.91;5024075;28;20115;-64
2022/11/22 00:21:19;;;;;;;15.07;7.18;;;;;;;6.74;100.00;99058.28;5009998;28;20026;-65
2022/11/22 00:23:44;;;;;;;16.92;7.18;;;;;;;6.72;100.00;99067.13;5010769;28;20033;-65
2022/11/22 00:26:10;;;;;;;13.00;6.85;;;;;;;6.68;100.00;99066.41;5010072;28;20037;-61
2022/11/22 00:28:38;;;;;;;18.40;7.68;;;;;;;6.74;100.00;99067.91;5026489;28;20595;-65
2022/11/22 00:31:03;;;;;;;18.88;6.70;;;;;;;6.75;100.00;99067.84;5028420;28;20112;-67
2022/11/22 00:33:28;;;;;;;12.65;6.93;;;;;;;6.72;100.00;99067.97;5029356;28;20140;-66
2022/11/22 00:35:54;;;;;;;21.67;7.60;;;;;;;6.74;100.00;99066.13;5013900;28;20061;-66
2022/11/22 00:38:19;;;;;;;15.20;7.50;;;;;;;6.80;100.00;99068.47;5009557;28;20033;-65
2022/11/22 00:40:44;;;;;;;16.50;8.00;;;;;;;6.87;100.00;99071.66;5010207;28;20029;-66
2022/11/22 00:43:10;;;;;;;15.75;7.47;;;;;;;6.87;100.00;99070.81;4992009;28;20036;-68
2022/11/22 00:45:35;;;;;;;16.58;6.90;;;;;;;6.90;100.00;99073.28;5008692;28;20036;-68
2022/11/22 00:48:00;;;;;;;14.23;7.10;;;;;;;6.94;100.00;99074.81;5009407;28;20018;-65
2022/11/22 00:50:26;;;;;;;20.95;7.22;;;;;;;6.97;100.00;99069.44;5009608;28;20022;-67
2022/11/22 00:52:51;;;;;;;31.42;8.00;;;;;;;6.99;100.00;99072.00;5009249;28;20504;-68
2022/11/22 00:55:16;;;;;;;21.02;7.00;;;;;;;7.02;100.00;99066.59;5009986;28;20500;-66
2022/11/22 00:57:42;;;;;;;21.00;7.13;;;;;;;7.05;100.00;99077.78;5006825;28;20026;-67
2022/11/22 01:00:08;;;;;;;12.68;6.47;;;;;;;7.08;100.00;99080.25;5008268;28;20404;-67
2022/11/22 01:02:33;;;;;;;20.77;6.95;;;;;;;7.13;100.00;99084.44;5009015;28;20101;-66
2022/11/22 01:04:58;;;;;;;13.10;6.07;;;;;;;7.11;100.00;99065.31;5009564;28;20029;-70
2022/11/22 01:07:24;;;;;;;16.02;6.00;;;;;;;6.99;100.00;99069.38;5009841;28;20034;-66
2022/11/22 01:09:49;;;;;;;12.73;5.55;;;;;;;6.95;100.00;99063.41;4991222;28;20674;-65
2022/11/22 01:12:14;;;;;;;15.75;5.45;;;;;;;6.89;100.00;99066.34;5009686;28;20026;-68
2022/11/22 01:14:40;;;;;;;20.80;5.30;;;;;;;6.80;100.00;99058.00;5008766;28;20046;-67
2022/11/22 01:17:05;;;;;;;16.52;5.20;;;;;;;6.73;100.00;99056.59;5009111;28;20112;-62
2022/11/22 01:19:30;;;;;;;20.20;6.80;;;;;;;6.67;100.00;99057.72;5009660;28;20108;-67
2022/11/22 01:21:56;;;;;;;19.73;6.00;;;;;;;6.65;100.00;99066.56;5009034;28;20026;-68
2022/11/22 01:24:22;;;;;;;18.23;5.50;;;;;;;6.65;100.00;99066.56;5007816;28;20034;-62
2022/11/22 01:26:47;;;;;;;16.45;5.63;;;;;;;6.64;100.00;99070.09;5009021;28;20033;-61
2022/11/22 01:29:12;;;;;;;15.30;5.15;;;;;;;6.57;100.00;99066.94;5007956;28;20356;-68
2022/11/22 01:31:38;;;;;;;23.05;5.95;;;;;;;6.53;100.00;99068.81;5009105;28;20030;-68
2022/11/22 01:34:03;;;;;;;14.85;5.43;;;;;;;6.46;100.00;99070.03;5008647;28;20113;-61
2022/11/22 01:36:29;;;;;;;20.63;5.35;;;;;;;6.49;100.00;99074.25;5008675;28;20068;-67
2022/11/22 01:38:54;;;;;;;16.27;5.03;;;;;;;6.41;100.00;99064.16;5008753;28;20453;-66
2022/11/22 01:41:20;;;;;;;13.90;4.90;;;;;;;6.39;100.00;99068.59;5008891;28;20042;-60
2022/11/22 01:43:46;;;;;;;23.17;6.03;;;;;;;6.40;100.00;99065.06;4991844;28;20542;-67
2022/11/22 01:46:36;;;;;;;18.70;5.68;;;;;;;6.37;100.00;99054.72;5007519;28;20061;-66
2022/11/22 01:49:28;;;;;;;33.75;6.82;;;;;;;6.30;100.00;99065.47;4983635;28;20034;-66
2022/11/22 01:51:57;;;;;;;24.90;4.68;;;;;;;6.37;100.00;99057.34;4990746;28;20484;-63
2022/11/22 01:54:24;;;;;;;19.55;5.00;;;;;;;6.34;100.00;99060.97;5007171;28;20115;-68
2022/11/22 01:56:54;;;;;;;11.25;4.57;;;;;;;6.29;100.00;99068.19;4991208;28;20357;-66
2022/11/22 01:59:20;;;;;;;;;;;;;;;6.27;100.00;99065.63;5017955;28;20075;-65
2022/11/22 02:01:45;;;;;;;24.08;5.88;;;;;;;6.27;100.00;99073.47;5010995;28;19921;-68
2022/11/22 02:04:13;;;;;;;26.58;5.10;;;;;;;6.18;100.00;99089.56;5027369;28;20132;-68
2022/11/22 02:06:46;;;;;;;21.42;4.35;;;;;;;6.23;100.00;99081.53;5028562;28;20372;-67
2022/11/22 02:09:12;;;;;;;22.90;4.28;;;;;;;6.21;100.00;99088.56;5010651;28;20044;-67
2022/11/22 02:11:40;;;;;;;22.00;4.20;;;;;;;6.21;100.00;99086.81;5028393;28;20536;-67
2022/11/22 02:14:07;;;;;;;26.77;4.05;;;;;;;6.20;100.00;99087.72;5026449;28;20057;-67
2022/11/22 02:16:33;;;;;;;15.27;3.53;;;;;;;6.16;100.00;99092.25;5028141;28;20037;-66
2022/11/22 02:18:59;;;;;;;32.33;5.07;;;;;;;6.14;100.00;99095.84;5028313;28;20112;-67
2022/11/22 02:21:25;;;;;;;16.25;3.63;;;;;;;6.10;100.00;99094.28;5010930;28;20100;-66
2022/11/22 02:24:36;;;;;;;19.30;3.95;;;;;;;6.00;100.00;99089.44;5027789;28;20030;-67
2022/11/22 02:27:01;;;;;;;20.05;4.38;;;;;;;5.98;100.00;99085.16;4953385;28;20050;-62
2022/11/22 02:29:27;;;;;;;24.73;4.50;;;;;;;5.87;100.00;99077.78;4981867;28;20673;-66
2022/11/22 02:31:52;;;;;;;22.40;4.00;;;;;;;5.85;100.00;99082.22;4999818;28;20047;-66
2022/11/22 02:34:18;;;;;;;27.40;4.63;;;;;;;5.75;100.00;99087.84;5007164;28;20034;-63
2022/11/22 02:36:47;;;;;;;20.45;4.00;;;;;;;5.77;100.00;99093.00;5007206;28;20026;-66
2022/11/22 02:39:16;;;;;;;28.08;4.03;;;;;;;5.75;100.00;99111.38;4989572;28;20064;-67
2022/11/22 02:41:43;;;;;;;19.17;3.83;;;;;;;5.75;100.00;99107.91;5007302;28;20026;-67
2022/11/22 02:44:09;;;;;;;21.38;3.72;;;;;;;5.76;100.00;99112.22;5006540;28;20033;-67
2022/11/22 02:46:34;;;;;;;32.10;4.65;;;;;;;5.77;100.00;99116.53;4989517;28;20022;-66
2022/11/22 02:48:59;;;;;;;26.80;3.75;;;;;;;5.81;100.00;99115.50;5007728;28;20056;-65
2022/11/22 02:51:25;;;;;;;20.05;3.58;;;;;;;5.82;100.00;99117.19;5007887;28;20032;-66
2022/11/22 02:53:52;;;;;;;25.80;4.35;;;;;;;5.76;100.00;99110.47;5007702;28;20381;-62
2022/11/22 02:56:19;;;;;;;15.80;3.20;;;;;;;5.76;100.00;99110.47;5012570;28;20037;-63
2022/11/22 02:58:44;;;;;;;28.42;3.83;;;;;;;5.76;100.00;99113.09;5027506;28;20119;-66
2022/11/22 03:01:11;;;;;;;18.20;3.88;;;;;;;5.74;100.00;99119.25;5026466;28;20053;-66
2022/11/22 03:03:36;;;;;;;23.33;3.65;;;;;;;5.74;100.00;99119.25;5027379;28;20384;-66
2022/11/22 03:06:02;;;;;;;25.33;3.35;;;;;;;5.81;100.00;99123.34;5027492;28;20032;-65
2022/11/22 03:08:27;;;;;;;23.33;3.47;;;;;;;5.85;100.00;99131.91;5027231;28;20513;-61
2022/11/22 03:10:52;;;;;;;26.60;3.38;;;;;;;5.74;100.00;99125.34;5027015;28;20025;-65
2022/11/22 03:13:18;;;;;;;18.95;2.88;;;;;;;5.87;100.00;99125.69;5027190;28;20042;-62
2022/11/22 03:15:46;;;;;;;18.55;3.28;;;;;;;5.95;100.00;99133.22;5026939;28;20524;-66
2022/11/22 03:18:11;;;;;;;27.25;4.13;;;;;;;6.05;100.00;99124.09;5019438;28;20037;-66
2022/11/22 03:20:36;;;;;;;28.40;2.97;;;;;;;6.06;100.00;99123.16;5007551;28;20034;-64
2022/11/22 03:23:02;;;;;;;19.60;3.17;;;;;;;6.09;100.00;99130.06;5007154;28;20707;-65
2022/11/22 03:25:27;;;;;;;25.95;3.60;;;;;;;6.22;100.00;99134.72;5010625;28;20030;-66
2022/11/22 03:27:52;;;;;;;16.63;3.13;;;;;;;6.22;100.00;99125.13;5010718;28;20029;-67
2022/11/22 03:30:18;;;;;;;14.43;2.67;;;;;;;6.27;100.00;99117.09;5010606;28;20030;-61
2022/11/22 03:32:43;;;;;;;15.20;3.50;;;;;;;6.23;100.00;99124.19;5011267;28;20021;-65
2022/11/22 03:35:09;;;;;;;21.85;3.00;;;;;;;6.13;100.00;99130.75;5010930;28;20105;-66
2022/11/22 03:37:34;;;;;;;17.48;3.05;;;;;;;6.04;100.00;99126.75;5010619;28;20034;-64
2022/11/22 03:40:00;;;;;;;19.65;2.92;;;;;;;6.05;100.00;99126.69;5010561;28;20037;-65
2022/11/22 03:42:25;;;;;;;19.10;3.25;;;;;;;5.97;100.00;99136.63;5010701;28;20030;-65
2022/11/22 03:44:50;;;;;;;22.25;2.70;;;;;;;5.88;100.00;99131.78;5009437;28;20040;-65
2022/11/22 03:47:16;;;;;;;14.77;2.70;;;;;;;5.84;100.00;99136.25;5010611;28;20021;-65
2022/11/22 03:49:41;;;;;;;15.40;2.70;;;;;;;5.77;100.00;99133.06;5010374;28;20022;-62
2022/11/22 03:52:06;;;;;;;15.32;2.78;;;;;;;5.65;100.00;99125.72;5013219;28;20088;-64
2022/11/22 03:54:32;;;;;;;19.27;3.42;;;;;;;5.60;100.00;99135.53;5011226;28;20104;-65
2022/11/22 03:56:57;;;;;;;15.38;3.20;;;;;;;5.57;100.00;99150.41;5009632;28;20444;-66
2022/11/22 03:59:22;;;;;;;18.15;3.78;;;;;;;5.53;100.00;99143.63;5009319;28;20112;-59
2022/11/22 04:01:48;;;;;;;11.15;2.58;;;;;;;5.47;100.00;99151.69;4992506;28;20131;-63
2022/11/22 04:04:13;;;;;;;16.45;3.55;;;;;;;5.43;100.00;99148.38;5010892;28;20057;-65
2022/11/22 04:06:39;;;;;;;17.60;2.63;;;;;;;5.37;100.00;99147.75;5010132;28;20076;-67
2022/11/22 04:09:04;;;;;;;22.00;3.35;;;;;;;5.35;100.00;99160.00;5010242;28;20079;-62
2022/11/22 04:11:29;;;;;;;15.45;3.17;;;;;;;5.36;100.00;99161.72;5010707;28;20029;-64
2022/11/22 04:16:39;;;;;;;21.40;3.38;;;;;;;5.25;100.00;99165.59;5010538;28;20053;-65
2022/11/22 04:19:04;;;;;;;21.05;3.58;;;;;;;5.27;100.00;99168.16;5009825;28;20030;-62
2022/11/22 04:21:32;;;;;;;12.05;3.50;;;;;;;5.18;100.00;99158.94;5009708;28;20030;-64
2022/11/22 04:26:42;;;;;;;17.55;3.08;;;;;;;5.14;100.00;99159.94;5013100;28;20039;-65
2022/11/22 04:29:07;;;;;;;13.75;3.28;;;;;;;5.10;100.00;99160.97;5029292;28;20112;-65
2022/11/22 04:34:16;;;;;;;12.52;3.10;;;;;;;5.06;100.00;99160.25;5031295;28;20113;-64
2022/11/22 04:36:41;;;;;;;11.23;2.30;;;;;;;4.99;100.00;99171.81;5029299;28;20527;-65
2022/11/22 04:39:07;;;;;;;17.40;2.55;;;;;;;4.99;100.00;99167.44;5029605;28;20112;-66
2022/11/22 04:41:32;;;;;;;17.20;3.00;;;;;;;5.06;100.00;99170.69;5029643;28;20049;-65
2022/11/22 04:46:41;;;;;;;12.88;2.88;;;;;;;5.09;100.00;99172.34;5029980;28;20179;-65
2022/11/22 04:49:07;;;;;;;13.93;2.05;;;;;;;5.15;100.00;99182.53;5029352;28;20112;-65
2022/11/22 04:54:16;;;;;;;13.25;2.47;;;;;;;5.28;100.00;99175.94;5027847;28;20122;-65
2022/11/22 04:56:41;;;;;;;20.83;2.80;;;;;;;5.30;100.00;99178.50;5009557;28;20468;-65
2022/11/22 04:59:06;;;;;;;16.65;2.53;;;;;;;5.36;100.00;99180.00;5008654;28;20536;-65
2022/11/22 05:01:32;;;;;;;17.45;2.30;;;;;;;5.35;100.00;99181.75;5027233;28;20030;-61
2022/11/22 05:03:57;;;;;;;9.95;2.42;;;;;;;5.42;100.00;99179.78;5004475;28;20108;-64
2022/11/22 05:06:22;;;;;;;15.80;2.80;;;;;;;5.54;100.00;99181.06;5009883;28;20112;-65
2022/11/22 05:08:48;;;;;;;12.18;2.63;;;;;;;5.53;100.00;99181.94;5011322;28;20033;-65
2022/11/22 05:11:13;;;;;;;11.90;2.38;;;;;;;5.60;100.00;99190.41;5004573;28;20112;-60
2022/11/22 05:13:40;;;;;;;20.00;3.08;;;;;;;5.64;100.00;99191.97;5008085;28;20069;-66
2022/11/22 05:16:11;;;;;;;13.90;2.40;;;;;;;5.78;100.00;99184.41;5009131;28;20552;-62
2022/11/22 05:18:36;;;;;;;14.32;2.92;;;;;;;5.83;100.00;99194.69;5009262;28;20025;-63
2022/11/22 05:21:06;;;;;;;13.90;2.90;;;;;;;5.86;100.00;99191.09;5008549;28;20397;-64
2022/11/22 05:26:15;;;;;;;14.10;3.05;;;;;;;6.04;100.00;99195.63;4994230;28;20111;-67
2022/11/22 05:28:41;;;;;;;12.20;2.92;;;;;;;6.03;100.00;99191.28;5007415;28;20527;-64
2022/11/22 05:31:07;;;;;;;17.77;3.28;;;;;;;5.94;100.00;99189.03;4989388;28;20022;-62
2022/11/22 05:33:34;;;;;;;11.50;3.10;;;;;;;6.00;100.00;99191.41;5008517;28;20033;-63
2022/11/22 05:36:00;;;;;;;6.40;2.97;;;;;;;6.06;100.00;99201.63;5008016;28;20429;-66
2022/11/22 05:38:26;;;;;;;12.52;3.30;;;;;;;6.16;100.00;99198.63;5008717;28;20435;-64
2022/11/22 05:40:51;;;;;;;11.05;2.92;;;;;;;6.21;100.00;99199.28;5008551;28;20644;-64
2022/11/22 05:43:16;;;;;;;13.65;3.40;;;;;;;6.21;100.00;99191.44;5008388;28;20022;-64
2022/11/22 05:45:42;;;;;;;10.10;3.05;;;;;;;6.24;100.00;99190.47;5007973;28;20044;-64
2022/11/22 05:48:07;;;;;;;12.63;3.72;;;;;;;6.26;100.00;99191.25;5006716;28;20113;-62
2022/11/22 05:50:32;;;;;;;14.05;3.20;;;;;;;6.27;100.00;99193.81;5027845;28;20383;-64
2022/11/22 05:53:02;;;;;;;6.72;3.13;;;;;;;6.32;100.00;99183.13;5026750;28;20525;-66
2022/11/22 05:55:28;;;;;;;14.07;3.20;;;;;;;6.19;100.00;99181.03;5020844;28;20033;-64
2022/11/22 05:57:53;;;;;;;15.68;3.88;;;;;;;6.27;100.00;99185.09;5010276;28;20038;-66
2022/11/22 06:00:18;;;;;;;11.48;3.13;;;;;;;6.24;100.00;99182.59;4988503;28;20041;-65
2022/11/22 06:02:44;;;;;;;17.83;3.38;;;;;;;6.20;100.00;99181.88;5028037;28;20029;-63
2022/11/22 06:05:09;;;;;;;14.98;3.75;;;;;;;6.10;100.00;99177.94;5026895;28;20025;-62
2022/11/22 06:07:34;;;;;;;16.48;3.88;;;;;;;6.17;100.00;99176.81;5027600;28;20029;-63
2022/11/22 06:10:00;;;;;;;15.27;3.60;;;;;;;6.21;100.00;99180.13;5014676;28;20037;-66
2022/11/22 06:12:25;;;;;;;9.05;2.90;;;;;;;6.12;100.00;99183.97;5007348;28;20034;-62
2022/11/22 06:14:50;;;;;;;9.90;3.75;;;;;;;6.13;100.00;99183.91;5006661;28;20068;-63
2022/11/22 06:17:16;;;;;;;14.55;3.33;;;;;;;6.10;100.00;99184.03;5008783;28;20054;-65
2022/11/22 06:19:41;;;;;;;20.40;4.85;;;;;;;6.20;100.00;99184.50;5007866;28;20112;-66
2022/11/22 06:22:07;;;;;;;10.15;3.50;;;;;;;6.18;100.00;99187.16;5006485;28;20087;-64
2022/11/22 06:24:33;;;;;;;9.52;3.53;;;;;;;6.17;100.00;99182.03;4988393;28;20046;-68
2022/11/22 06:26:59;;;;;;;4.70;3.22;;;;;;;6.23;100.00;99181.75;4987622;28;20494;-64
2022/11/22 06:29:24;;;;;;;10.27;3.50;;;;;;;6.16;100.00;99172.47;5005373;28;20483;-65
2022/11/22 06:31:49;;;;;;;9.52;3.35;;;;;;;6.26;100.00;99173.78;5027520;28;20068;-64
2022/11/22 06:34:15;;;;;;;12.48;3.17;;;;;;;6.29;100.00;99167.59;5025712;28;20040;-65
2022/11/22 06:36:40;;;;;;;7.45;3.30;;;;;;;6.28;100.00;99164.09;4988176;28;20030;-68
2022/11/22 06:39:06;;;;;;;7.15;3.65;;;;;;;6.25;100.00;99161.63;4987430;28;20540;-62
2022/11/22 06:41:34;;;;;;;9.73;3.47;;;;;;;6.28;100.00;99161.50;4987567;28;20027;-66
2022/11/22 06:44:04;;;;;;;13.57;3.72;;;;;;;6.31;100.00;99166.59;5001578;28;20377;-65
2022/11/22 06:46:29;;;;;;;10.07;3.42;;;;;;;6.24;100.00;99170.38;4997141;28;20099;-63
2022/11/22 06:48:54;;;;;;;17.08;3.42;;;;;;;6.26;100.00;99160.69;4995466;28;20416;-64
2022/11/22 06:51:21;;;;;;;6.50;2.90;;;;;;;6.24;100.00;99175.63;4995931;28;20607;-63
2022/11/22 06:53:48;;;;;;;12.57;3.92;;;;;;;6.26;100.00;99163.31;4997461;28;20125;-64
2022/11/22 06:56:18;;;;;;;10.45;3.50;;;;;;;6.31;100.00;99173.59;4992610;28;20096;-65
2022/11/22 06:58:44;;;;;;;11.98;3.50;;;;;;;6.29;100.00;99178.88;4991299;28;20069;-62
2022/11/22 07:01:15;;;;;;;6.75;3.20;;;;;;;6.29;100.00;99173.66;4990334;28;20069;-66
2022/11/22 07:03:41;;;;;;;9.68;3.28;;;;;;;6.30;100.00;99167.47;4992247;28;20125;-64
2022/11/22 07:06:07;;;;;;;6.07;2.92;;;;;;;6.35;100.00;99177.75;4992632;28;20831;-65
2022/11/22 07:08:33;;;;;;;10.95;3.60;;;;;;;6.17;100.00;99167.16;5009644;28;20041;-65
2022/11/22 07:11:03;;;;;;;11.25;4.35;;;;;;;6.20;100.00;99176.66;5010047;28;20022;-66
2022/11/22 07:13:29;;;;;;;16.10;4.97;;;;;;;6.18;100.00;99170.66;5009792;28;20339;-66
2022/11/22 07:15:58;;;;;;;13.25;3.47;;;;;;;6.21;100.00;99175.75;5010160;28;20464;-62
2022/11/22 07:18:23;;;;;;;;;;;;;;;6.17;100.00;99185.47;5010572;28;20037;-64
2022/11/22 07:20:49;;;;;;;11.85;3.65;;;;;;;6.09;100.00;99190.19;5009940;28;19917;-66
2022/11/22 07:23:15;;;;;;;10.40;3.58;;;;;;;6.06;100.00;99193.75;5010447;28;20018;-65
2022/11/22 07:25:44;;;;;;;7.47;3.20;;;;;;;5.96;100.00;99183.75;5009626;28;20476;-66
2022/11/22 07:28:10;;;;;;;10.20;3.33;;;;;;;6.10;100.00;99186.66;5001344;28;20022;-66
2022/11/22 07:30:35;;;;;;;13.30;3.33;;;;;;;6.13;100.00;99183.06;5009127;28;20041;-65
2022/11/22 07:33:00;;;;;;;9.30;3.15;;;;;;;6.25;100.00;99182.53;5007560;28;20072;-63
2022/11/22 07:35:26;;;;;;;13.45;3.90;;;;;;;6.29;100.00;99184.09;4999777;28;20053;-63
2022/11/22 07:37:51;;;;;;;9.25;3.15;;;;;;;6.29;100.00;99197.19;4988649;28;20105;-66
2022/11/22 07:40:16;;;;;;;8.02;3.80;;;;;;;6.28;100.00;99186.78;4990504;28;20030;-63
2022/11/22 07:42:42;;;;;;;6.20;3.40;;;;;;;6.38;100.00;99184.66;4990262;28;20022;-66
2022/11/22 07:45:08;;;;;;;6.80;3.30;;;;;;;6.30;100.00;99185.78;4988436;28;20038;-67
2022/11/22 07:47:33;;;;;;;10.40;4.45;;;;;;;6.37;100.00;99186.41;4990639;28;20026;-65
2022/11/22 07:49:58;;;;;;;9.68;3.35;;;;;;;6.42;100.00;99188.81;4989274;28;20030;-67
2022/11/22 07:52:23;;;;;;;9.88;3.47;;;;;;;6.54;100.00;99187.44;4989525;28;20029;-65
2022/11/22 07:54:49;;;;;;;11.95;3.95;;;;;;;6.51;100.00;99191.06;5012151;28;20116;-65
2022/11/22 07:57:14;;;;;;;12.23;3.40;;;;;;;6.61;100.00;99193.25;5030067;28;20017;-63
2022/11/22 07:59:39;;;;;;;10.23;2.83;;;;;;;6.46;100.00;99177.31;5028494;28;20053;-67
2022/11/22 08:02:05;;;;;;;9.18;3.30;;;;;;;6.44;100.00;99192.19;5030243;28;20044;-68
2022/11/22 08:04:30;;;;;;;6.22;3.05;;;;;;;6.63;100.00;99197.50;5030440;28;20033;-63
2022/11/22 08:06:55;;;;;;;10.90;3.70;;;;;;;6.73;100.00;99203.19;5030048;28;20055;-66
2022/11/22 08:09:21;;;;;;;7.00;2.78;;;;;;;6.60;100.00;99196.78;5013160;28;20021;-59
2022/11/22 08:11:46;;;;;;;4.85;2.67;;;;;;;6.60;100.00;99196.78;4997546;28;20026;-64
2022/11/22 08:14:11;;;;;;;10.63;3.17;;;;;;;6.78;100.00;99210.84;4998024;28;20062;-66
2022/11/22 08:16:37;;;;;;;10.68;2.70;;;;;;;6.70;100.00;99200.69;5001449;28;20033;-67
2022/11/22 08:19:03;;;;;;;8.32;3.20;;;;;;;6.79;100.00;99202.91;5001550;28;20060;-66
2022/11/22 08:21:28;;;;;;;7.32;2.85;;;;;;;6.69;100.00;99212.09;4999314;28;20030;-62
2022/11/22 08:23:57;;;;;;;13.13;2.90;;;;;;;6.85;100.00;99214.00;4996894;28;20015;-66
2022/11/22 08:26:23;;;;;;;13.43;2.90;;;;;;;6.87;100.00;99217.44;4999276;28;20025;-67
2022/11/22 08:28:48;;;;;;;6.22;2.63;;;;;;;6.85;100.00;99212.25;4988945;28;20028;-63
2022/11/22 08:31:17;;;;;;;9.48;2.97;;;;;;;6.88;100.00;99214.75;4998762;28;20022;-65
2022/11/22 08:33:43;;;;;;;;;;;;;;;6.77;100.00;99223.06;4998643;28;20026;-66
2022/11/22 08:36:08;;;;;;;10.48;2.67;;;;;;;6.75;100.00;99230.16;4988978;28;19928;-63
2022/11/22 08:38:34;;;;;;;9.30;3.35;;;;;;;6.74;100.00;99236.28;5001576;28;20034;-62
2022/11/22 08:41:00;;;;;;;11.23;2.90;;;;;;;6.75;100.00;99227.53;4999273;28;20030;-62
2022/11/22 08:43:25;;;;;;;9.20;2.90;;;;;;;6.83;100.00;99235.03;4998313;28;20077;-65
2022/11/22 08:45:56;;;;;;;8.57;2.85;;;;;;;6.91;100.00;99235.56;4999452;28;20029;-65
2022/11/22 08:48:21;;;;;;;7.13;3.03;;;;;;;7.00;100.00;99236.03;5008999;28;20492;-64
2022/11/22 08:51:07;;;;;;;7.28;3.25;;;;;;;7.05;100.00;99234.91;5010126;28;20044;-65
2022/11/22 08:53:33;;;;;;;9.82;3.15;;;;;;;6.93;100.00;99235.47;5010746;28;20034;-69
2022/11/22 08:56:00;;;;;;;9.07;3.30;;;;;;;7.02;100.00;99240.31;5010007;28;20037;-65
2022/11/22 08:58:28;;;;;;;7.20;3.50;;;;;;;6.99;100.00;99237.84;5009272;28;20461;-62
2022/11/22 09:00:53;;;;;;;11.23;2.85;;;;;;;7.12;100.00;99240.75;5009730;28;20088;-64
2022/11/22 09:03:18;;;;;;;9.32;3.47;;;;;;;7.00;100.00;99246.53;5009522;28;20508;-60
2022/11/22 09:05:43;;;;;;;7.00;3.17;;;;;;;7.13;100.00;99242.44;5009051;28;20107;-64
2022/11/22 09:08:09;;;;;;;14.75;3.35;;;;;;;6.99;100.00;99240.44;5009143;28;20527;-64
2022/11/22 09:10:34;;;;;;;7.85;3.22;;;;;;;7.09;100.00;99235.63;5008660;28;20030;-65
2022/11/22 09:12:59;;;;;;;11.32;3.00;;;;;;;7.16;100.00;99252.78;5008475;28;20034;-62
2022/11/22 09:15:25;;;;;;;10.23;3.38;;;;;;;7.15;100.00;99255.47;5007863;28;20022;-64
2022/11/22 09:17:50;;;;;;;6.88;3.17;;;;;;;7.07;100.00;99254.03;5001703;28;20120;-66
2022/11/22 09:20:15;;;;;;;9.38;3.72;;;;;;;7.11;100.00;99259.16;4998327;28;20113;-65
2022/11/22 09:22:41;;;;;;;10.10;2.85;;;;;;;7.10;100.00;99254.84;4996179;28;20033;-64
2022/11/22 09:25:06;;;;;;;8.35;2.72;;;;;;;7.04;100.00;99259.41;4997750;28;20026;-62
2022/11/22 09:27:32;;;;;;;12.88;3.08;;;;;;;7.26;100.00;99257.59;4998460;28;20388;-64
2022/11/22 09:29:58;;;;;;;5.93;2.90;;;;;;;7.32;100.00;99252.09;4998959;28;20110;-66
2022/11/22 09:32:23;;;;;;;7.43;2.70;;;;;;;7.42;100.00;99255.13;4997716;28;20029;-63
2022/11/22 09:34:49;;;;;;;10.57;3.35;;;;;;;7.41;100.00;99266.53;5003861;28;20033;-65
2022/11/22 09:37:17;;;;;;;11.82;3.42;;;;;;;7.38;100.00;99256.19;5002446;28;20033;-64
2022/11/22 09:39:43;;;;;;;7.60;2.80;;;;;;;7.41;100.00;99267.38;5008168;28;20030;-58
2022/11/22 09:42:27;;;;;;;6.88;2.88;;;;;;;7.42;100.00;99273.47;5008697;28;20156;-63
2022/11/22 09:45:07;;;;;;;9.85;3.08;;;;;;;7.53;100.00;99271.19;5006082;28;20447;-64
2022/11/22 09:48:00;;;;;;;8.60;2.92;;;;;;;7.64;100.00;99270.69;5006135;28;20061;-60
2022/11/22 09:50:34;;;;;;;7.57;3.03;;;;;;;7.63;100.00;99268.13;5006885;28;20037;-64
2022/11/22 09:53:22;;;;;;;13.60;4.05;;;;;;;7.62;100.00;99271.69;5007024;28;20088;-64
2022/11/22 09:55:51;;;;;;;9.55;3.13;;;;;;;7.66;100.00;99275.88;4990941;28;20406;-65
2022/11/22 09:58:37;;;;;;;10.23;2.88;;;;;;;7.71;100.00;99274.72;4988541;28;20032;-65
2022/11/22 10:01:30;;;;;;;12.07;3.40;;;;;;;7.70;100.00;99277.41;4985240;28;20041;-60
2022/11/22 10:04:28;;;;;;;7.07;2.63;;;;;;;7.71;100.00;99274.72;4995984;28;20030;-65
2022/11/22 10:07:06;;;;;;;6.05;2.85;;;;;;;7.57;100.00;99271.91;5000099;28;20424;-64
2022/11/22 10:09:46;;;;;;;10.48;2.72;;;;;;;7.79;100.00;99271.75;5000916;28;20038;-65
2022/11/22 10:12:17;;;;;;;7.72;2.75;;;;;;;7.92;100.00;99266.75;5006267;28;20022;-62
2022/11/22 10:15:26;;;;;;;9.90;2.67;;;;;;;7.87;100.00;99262.66;5005848;28;20052;-67
2022/11/22 10:17:54;;;;;;;5.70;2.50;;;;;;;7.90;100.00;99268.63;4946887;29;20267;-65
2022/11/22 10:20:28;;;;;;;7.35;2.40;;;;;;;7.91;100.00;99269.44;4946581;29;20026;-65
2022/11/22 10:22:53;;;;;;;5.53;2.40;;;;;;;8.00;100.00;99263.75;4969712;28;20033;-63
2022/11/22 10:25:21;;;;;;;6.53;2.20;;;;;;;8.05;100.00;99269.66;4970720;28;20048;-69
2022/11/22 10:28:01;;;;;;;6.13;2.50;;;;;;;8.03;100.00;99278.50;4985474;28;20487;-67
2022/11/22 10:30:32;;;;;;;9.15;2.78;;;;;;;7.93;100.00;99273.72;4997695;28;20018;-70
2022/11/22 10:33:10;;;;;;;7.97;2.47;;;;;;;7.93;100.00;99268.47;4987540;28;20113;-69
2022/11/22 10:35:59;;;;;;;8.73;2.38;;;;;;;7.96;100.00;99264.84;4996507;28;20383;-69
2022/11/22 10:38:38;;;;;;;11.23;2.33;;;;;;;7.76;100.00;99261.41;4986944;28;20035;-65
2022/11/22 10:41:40;;;;;;;4.78;2.45;;;;;;;7.69;100.00;99260.00;4986591;28;20034;-61
2022/11/22 10:44:43;;;;;;;10.57;2.58;;;;;;;7.73;100.00;99255.47;4987951;28;20045;-64
2022/11/22 10:47:16;;;;;;;6.60;2.22;;;;;;;7.69;100.00;99262.63;4986180;28;20034;-64
2022/11/22 10:49:54;;;;;;;7.35;2.30;;;;;;;7.68;100.00;99256.50;4987383;28;20516;-58
2022/11/22 10:52:25;;;;;;;5.00;1.98;;;;;;;7.65;100.00;99258.44;4986128;28;20030;-66
2022/11/22 10:55:20;;;;;;;10.75;2.50;;;;;;;7.65;100.00;99253.19;4984798;28;20495;-70
2022/11/22 10:58:07;;;;;;;6.63;2.25;;;;;;;7.48;100.00;99254.84;4997034;28;20532;-69
2022/11/22 11:00:35;;;;;;;10.60;2.45;;;;;;;7.69;100.00;99252.13;4987166;28;20119;-65
2022/11/22 11:03:00;;;;;;;7.65;3.08;;;;;;;7.76;100.00;99237.81;4989480;28;20033;-65
2022/11/22 11:05:33;;;;;;;6.22;2.47;;;;;;;7.60;100.00;99232.44;5007138;28;20026;-67
2022/11/22 11:07:59;;;;;;;6.30;2.05;;;;;;;7.67;100.00;99236.47;4989305;28;20495;-60
2022/11/22 11:10:28;;;;;;;9.02;2.30;;;;;;;7.57;100.00;99237.81;4997319;28;20038;-66
2022/11/22 11:13:14;;;;;;;5.35;2.50;;;;;;;7.84;100.00;99234.81;4982514;28;20014;-61
2022/11/22 11:15:57;;;;;;;6.60;2.08;;;;;;;7.93;100.00;99234.38;4988848;28;20053;-58
2022/11/22 11:18:56;;;;;;;7.60;2.08;;;;;;;7.92;100.00;99245.75;4988731;28;20082;-59
2022/11/22 11:21:22;;;;;;;8.52;2.67;;;;;;;7.96;100.00;99236.84;4961046;28;20421;-64
2022/11/22 11:23:47;;;;;;;7.70;2.80;;;;;;;8.06;100.00;99236.38;5005221;28;20075;-60
2022/11/22 11:26:15;;;;;;;5.40;2.03;;;;;;;8.11;100.00;99244.03;5006357;28;20049;-59
2022/11/22 11:28:40;;;;;;;8.80;2.85;;;;;;;8.17;100.00;99246.34;5001250;28;20057;-60
2022/11/22 11:31:07;;;;;;;5.70;2.20;;;;;;;8.31;100.00;99229.94;4988439;28;20137;-58
2022/11/22 11:33:37;;;;;;;5.40;2.05;;;;;;;8.20;100.00;99244.44;4993732;28;20028;-60
2022/11/22 11:36:05;;;;;;;;;;;;;;;8.22;100.00;99239.09;4994788;28;20101;-67
2022/11/22 11:38:55;;;;;;;10.17;2.30;;;;;;;8.14;100.00;99238.63;4995179;28;19951;-65
2022/11/22 11:41:29;;;;;;;12.35;2.67;;;;;;;8.02;100.00;99240.94;4978598;28;20784;-63
2022/11/22 11:43:59;;;;;;;6.13;2.25;;;;;;;7.99;100.00;99235.84;4986141;28;20036;-66
2022/11/22 11:46:31;;;;;;;5.07;1.83;;;;;;;7.91;100.00;99232.72;4988728;28;20511;-64
2022/11/22 11:49:13;;;;;;;7.35;2.20;;;;;;;7.77;100.00;99230.78;5005502;28;20044;-63
2022/11/22 11:51:54;;;;;;;10.10;2.13;;;;;;;7.84;100.00;99221.69;5004947;28;20018;-61